Stuntz, Minnesota
Current Conditions -  °F | °C
As of 8:53 PM on Thursday 18 Dec 2014 (Local Time) from KHIB Reporting Station
Overcast Overcast  
Wind Chill: 15°   Ceiling: 1500
Heat Index: 23°   Visibility: 10mi
Dew Point: 16°   Wind: 7mph
Humidity: 74%   Direction: 160°SSE
Pressure: 30.21"   Gusts: NA
Location:  47.4158°N, 93.0053°W
Report Text: KHIB 190253Z AUTO 16006KT 10SM OVC015 M05/M09 A3021 RMK AO2 SLP256 T10501089 55003
Loading
Personal Weather Stations






























Interactive Weather Map New forecast layout! Learn more

10-Day Weather Forecast

Advertisements
Track Severe Weather on mobile